createdAt,value
2018-12-25T00:01:29.491Z,29.1
2018-12-25T00:06:30.850Z,29
2018-12-25T00:11:32.380Z,28.9
2018-12-25T00:16:34.401Z,28.8
2018-12-25T00:21:36.314Z,28.6
2018-12-25T00:26:38.001Z,28.6
2018-12-25T00:36:50.844Z,28.6
2018-12-25T00:41:53.258Z,28.7
2018-12-25T00:46:55.272Z,29.3
2018-12-25T00:51:56.988Z,29.2
2018-12-25T00:57:00.530Z,29.1
2018-12-25T01:02:04.387Z,29.1
2018-12-25T01:07:05.955Z,29.2
2018-12-25T01:12:07.815Z,29.1
2018-12-25T01:17:09.299Z,29.2
2018-12-25T01:22:11.209Z,29.2
2018-12-25T01:27:13.313Z,29.1
2018-12-25T01:32:15.728Z,29.5
2018-12-25T01:42:27.064Z,29
2018-12-25T01:47:28.994Z,29
2018-12-25T01:52:30.719Z,29
2018-12-25T01:57:32.844Z,29
2018-12-25T02:02:36.241Z,29.1
2018-12-25T02:07:38.734Z,29.1
2018-12-25T02:12:41.042Z,29.2
2018-12-25T02:17:42.782Z,29.2
2018-12-25T02:22:44.639Z,29.1
2018-12-25T02:27:46.839Z,29
2018-12-25T02:32:48.628Z,28.9
2018-12-25T02:37:51.137Z,28.8
2018-12-25T02:48:03.457Z,28.4
2018-12-25T02:53:05.094Z,28.4
2018-12-25T02:58:06.284Z,28.5
2018-12-25T03:03:09.405Z,28.6
2018-12-25T03:08:11.270Z,29.2
2018-12-25T03:13:12.509Z,28.4
2018-12-25T03:18:14.387Z,28.5
2018-12-25T03:23:16.375Z,28.6
2018-12-25T03:28:18.389Z,28.6
2018-12-25T03:33:20.373Z,28.8
2018-12-25T03:38:21.678Z,28.9
2018-12-25T03:43:23.555Z,29
2018-12-25T03:48:26.031Z,29.1
2018-12-25T03:53:29.139Z,29.1
2018-12-25T03:58:32.850Z,29.1
2018-12-25T04:03:35.675Z,29.1
2018-12-25T04:08:37.871Z,29.2
2018-12-25T04:13:39.721Z,29.2
2018-12-25T04:18:41.512Z,29.3
2018-12-25T04:23:44.231Z,29.3
2018-12-25T04:28:46.155Z,29.3
2018-12-25T04:33:48.643Z,29.2
2018-12-25T04:38:50.262Z,29.4
2018-12-25T04:43:52.354Z,28.8
2018-12-25T04:48:54.721Z,28.7
2018-12-25T04:53:56.722Z,28.7
2018-12-25T04:58:58.247Z,28.7
2018-12-25T05:03:59.964Z,28.9
2018-12-25T05:09:01.537Z,28.9
2018-12-25T05:14:04.327Z,29.5
2018-12-25T05:19:06.319Z,29.1
2018-12-25T05:24:08.343Z,29.2
2018-12-25T05:34:10.153Z,29.9
2018-12-25T05:39:12.653Z,29.3
2018-12-25T05:44:16.533Z,29.3
2018-12-25T05:49:18.094Z,29.4
2018-12-25T05:54:20.959Z,29.4
2018-12-25T05:59:22.509Z,29.5
2018-12-25T06:04:24.126Z,29.4
2018-12-25T06:09:25.944Z,29.9
2018-12-25T06:14:28.857Z,29.5
2018-12-25T06:24:41.104Z,30.1
2018-12-25T06:29:42.470Z,30.1
2018-12-25T06:34:44.037Z,30
2018-12-25T06:44:52.409Z,30
2018-12-25T06:50:17.221Z,30
2018-12-25T06:55:03.482Z,30
2018-12-25T07:00:09.593Z,29.9
2018-12-25T07:05:27.500Z,29.8
2018-12-25T07:10:32.491Z,29.5
2018-12-25T07:15:51.298Z,29.7
2018-12-25T07:20:42.829Z,29.7
2018-12-25T07:25:47.708Z,29.6
2018-12-25T07:30:58.034Z,30.1
2018-12-25T07:35:48.897Z,29.5
2018-12-25T07:40:50.995Z,29.4
2018-12-25T07:45:52.777Z,29.4
2018-12-25T07:51:20.616Z,29.4
2018-12-25T07:55:58.469Z,29.3
2018-12-25T08:01:00.033Z,29.4
2018-12-25T08:06:19.405Z,29.3
2018-12-25T08:11:02.438Z,29.9
2018-12-25T08:16:04.615Z,29.4
2018-12-25T08:26:06.644Z,29.4
2018-12-25T08:31:10.602Z,29.5
2018-12-25T08:36:12.218Z,29.5
2018-12-25T08:46:23.657Z,29.7
2018-12-25T08:51:25.588Z,29.7
2018-12-25T08:56:27.743Z,29.8
2018-12-25T09:06:39.457Z,29.8
2018-12-25T09:11:40.886Z,29.8
2018-12-25T09:16:43.301Z,29.9
2018-12-25T09:21:49.052Z,29.8
2018-12-25T09:26:50.771Z,30.2
2018-12-25T09:37:03.053Z,30.1
2018-12-25T09:42:04.648Z,30
2018-12-25T09:47:07.205Z,30
2018-12-25T09:52:08.809Z,30
2018-12-25T09:57:10.957Z,30.1
2018-12-25T10:07:24.227Z,31.1
2018-12-25T12:27:50.280Z,24.7
2018-12-25T12:32:51.885Z,25.4
2018-12-25T12:37:53.269Z,26.8
2018-12-25T12:42:56.116Z,28.4
2018-12-25T12:48:02.611Z,28.2
2018-12-25T12:58:05.000Z,27.3
2018-12-25T13:03:07.753Z,27.3
2018-12-25T13:08:08.982Z,28
2018-12-25T13:13:11.015Z,27.5
2018-12-25T13:18:12.799Z,27.6
2018-12-25T13:23:14.864Z,27.9
2018-12-25T13:28:16.358Z,28.1
2018-12-25T13:33:18.698Z,28.2
2018-12-25T13:38:20.470Z,28
2018-12-25T13:48:31.771Z,28.3
2018-12-25T13:53:33.364Z,28.4
2018-12-25T14:03:35.648Z,28.4
2018-12-25T14:08:37.326Z,28.4
2018-12-25T14:13:39.343Z,29.2
2018-12-25T14:18:40.440Z,28.5
2018-12-25T14:23:43.023Z,28.5
2018-12-25T14:28:44.693Z,28.6
2018-12-25T14:33:46.171Z,28.5
2018-12-25T14:38:47.614Z,28.7
2018-12-25T14:43:49.408Z,28.8
2018-12-25T14:48:51.385Z,28.6
2018-12-25T14:53:53.702Z,28.7
2018-12-25T14:58:56.209Z,28.7
2018-12-25T15:03:57.738Z,28.6
2018-12-25T15:08:59.678Z,28.4
2018-12-25T15:14:03.613Z,28.3
2018-12-25T15:19:04.888Z,28.1
2018-12-25T15:24:06.967Z,28
2018-12-25T15:29:08.432Z,27.9
2018-12-25T15:34:10.622Z,27.9
2018-12-25T15:39:13.330Z,27.9
2018-12-25T15:44:15.116Z,27.8
2018-12-25T15:49:18.194Z,27.7
2018-12-25T15:54:20.031Z,27.5
2018-12-25T15:59:22.445Z,27.5
2018-12-25T16:04:24.582Z,27.4
2018-12-25T16:09:26.361Z,27.4
2018-12-25T16:14:28.389Z,27.4
2018-12-25T16:19:34.016Z,27.3
2018-12-25T16:24:39.494Z,27.3
2018-12-25T16:29:41.946Z,27.3
2018-12-25T16:34:43.855Z,27.3
2018-12-25T16:39:45.927Z,27.4
2018-12-25T16:44:47.487Z,27.3
2018-12-25T16:49:49.851Z,27.8
2018-12-25T16:54:51.433Z,27.2
2018-12-25T16:59:52.692Z,26.9
2018-12-25T17:04:54.651Z,25
2018-12-25T17:09:54.784Z,24.3
2018-12-25T17:14:56.606Z,24
2018-12-25T17:19:58.151Z,23.2
2018-12-25T17:25:03.099Z,22.7
2018-12-25T17:35:05.664Z,24
2018-12-25T17:40:07.571Z,24.4
2018-12-25T17:45:09.518Z,25.4
2018-12-25T17:50:11.808Z,24.1
2018-12-25T17:55:13.713Z,24.6
2018-12-25T18:05:16.333Z,25
2018-12-25T18:10:18.465Z,25.6
2018-12-25T18:15:21.157Z,24.9
2018-12-25T18:20:23.536Z,25
2018-12-25T18:25:25.591Z,25
2018-12-25T18:30:27.453Z,25
2018-12-25T18:35:29.715Z,25
2018-12-25T18:40:32.216Z,25.1
2018-12-25T18:50:36.941Z,25.5
2018-12-25T18:55:40.219Z,25
2018-12-25T19:00:41.528Z,25
2018-12-25T19:05:43.071Z,25.3
2018-12-25T19:10:45.644Z,25.4
2018-12-25T19:15:48.046Z,25.6
2018-12-25T19:20:50.805Z,26.4
2018-12-25T19:25:53.281Z,26.1
2018-12-25T19:30:54.790Z,26.1
2018-12-25T19:35:57.042Z,26.8
2018-12-25T19:41:01.249Z,27.8
2018-12-25T19:46:05.507Z,28.2
2018-12-25T19:51:07.091Z,28.4
2018-12-25T19:56:09.392Z,28.7
2018-12-25T20:01:11.623Z,28.7
2018-12-25T20:06:13.084Z,28.6
2018-12-25T20:11:15.231Z,28.5
2018-12-25T20:16:16.609Z,28.5
2018-12-25T20:21:18.476Z,28.5
2018-12-25T20:26:20.441Z,28.5
2018-12-25T20:31:22.184Z,28.5
2018-12-25T20:36:24.128Z,28.5
2018-12-25T20:41:25.753Z,28.5
2018-12-25T20:46:27.233Z,28.6
2018-12-25T20:51:28.477Z,28.7
2018-12-25T21:01:42.587Z,28.8
2018-12-25T21:11:45.524Z,28.9
2018-12-25T21:16:48.005Z,28.8
2018-12-25T21:21:49.519Z,29
2018-12-25T21:26:51.507Z,29
2018-12-25T21:31:53.831Z,28.9
2018-12-25T21:36:56.449Z,28.7
2018-12-25T21:41:57.864Z,29.2
2018-12-25T21:47:00.377Z,29
2018-12-25T21:57:02.056Z,29
2018-12-25T22:02:03.824Z,29.1
2018-12-25T22:12:09.906Z,29.1
2018-12-25T22:17:11.683Z,29.2
2018-12-25T22:22:13.214Z,29.1
2018-12-25T22:27:14.413Z,29.1
2018-12-25T22:32:16.608Z,29.1
2018-12-25T22:37:19.106Z,29.1
2018-12-25T22:42:20.517Z,29.3
2018-12-25T22:47:21.847Z,29.4
2018-12-25T22:52:23.077Z,29.2
2018-12-25T22:57:25.373Z,29.2
2018-12-25T23:02:26.963Z,29.4
2018-12-25T23:07:28.391Z,29.4
2018-12-25T23:12:30.768Z,29.4
2018-12-25T23:17:33.080Z,29.4
2018-12-25T23:22:34.988Z,29.5
2018-12-25T23:27:36.695Z,29.5
2018-12-25T23:32:38.070Z,29.6
2018-12-25T23:37:40.105Z,29.6
2018-12-25T23:42:42.273Z,29.8
2018-12-25T23:47:43.947Z,29.8
2018-12-25T23:52:44.265Z,29.3
2018-12-25T23:57:46.293Z,29.9
